sensor_id;sensor_type;location;lat;lon;timestamp;P1;durP1;ratioP1;P2;durP2;ratioP2
11743;SDS011;5929;51.906;7.674;2023-05-18T00:02:09;11.55;;;2.70;;
11743;SDS011;5929;51.906;7.674;2023-05-18T00:04:41;9.98;;;2.63;;
11743;SDS011;5929;51.906;7.674;2023-05-18T00:07:08;11.35;;;3.10;;
11743;SDS011;5929;51.906;7.674;2023-05-18T00:09:35;16.10;;;3.65;;
11743;SDS011;5929;51.906;7.674;2023-05-18T00:12:03;10.20;;;3.20;;
11743;SDS011;5929;51.906;7.674;2023-05-18T00:14:30;9.77;;;2.78;;
11743;SDS011;5929;51.906;7.674;2023-05-18T00:16:57;9.40;;;3.45;;
11743;SDS011;5929;51.906;7.674;2023-05-18T00:19:25;12.20;;;3.10;;
11743;SDS011;5929;51.906;7.674;2023-05-18T00:21:55;15.73;;;3.60;;
11743;SDS011;5929;51.906;7.674;2023-05-18T00:24:22;14.57;;;3.63;;
11743;SDS011;5929;51.906;7.674;2023-05-18T00:26:49;8.90;;;3.05;;
11743;SDS011;5929;51.906;7.674;2023-05-18T00:29:16;11.55;;;2.90;;
11743;SDS011;5929;51.906;7.674;2023-05-18T00:31:43;12.15;;;2.95;;
11743;SDS011;5929;51.906;7.674;2023-05-18T00:34:12;12.52;;;3.05;;
11743;SDS011;5929;51.906;7.674;2023-05-18T00:36:40;12.45;;;3.47;;
11743;SDS011;5929;51.906;7.674;2023-05-18T00:39:08;8.27;;;3.38;;
11743;SDS011;5929;51.906;7.674;2023-05-18T00:41:35;9.15;;;2.85;;
11743;SDS011;5929;51.906;7.674;2023-05-18T00:44:02;11.68;;;3.13;;
11743;SDS011;5929;51.906;7.674;2023-05-18T00:46:29;12.30;;;3.28;;
11743;SDS011;5929;51.906;7.674;2023-05-18T00:48:56;10.50;;;2.78;;
11743;SDS011;5929;51.906;7.674;2023-05-18T00:51:25;11.85;;;3.08;;
11743;SDS011;5929;51.906;7.674;2023-05-18T00:53:53;11.68;;;3.30;;
11743;SDS011;5929;51.906;7.674;2023-05-18T00:56:22;10.27;;;2.95;;
11743;SDS011;5929;51.906;7.674;2023-05-18T00:58:50;9.93;;;3.08;;
11743;SDS011;5929;51.906;7.674;2023-05-18T01:01:20;13.63;;;3.15;;
11743;SDS011;5929;51.906;7.674;2023-05-18T01:03:51;10.68;;;2.95;;
11743;SDS011;5929;51.906;7.674;2023-05-18T01:06:20;13.30;;;3.85;;
11743;SDS011;5929;51.906;7.674;2023-05-18T01:08:49;13.27;;;3.67;;
11743;SDS011;5929;51.906;7.674;2023-05-18T01:11:18;9.25;;;3.13;;
11743;SDS011;5929;51.906;7.674;2023-05-18T01:13:55;8.75;;;3.00;;
11743;SDS011;5929;51.906;7.674;2023-05-18T01:16:29;12.50;;;3.65;;
11743;SDS011;5929;51.906;7.674;2023-05-18T01:19:02;11.65;;;2.78;;
11743;SDS011;5929;51.906;7.674;2023-05-18T01:21:46;10.40;;;3.22;;
11743;SDS011;5929;51.906;7.674;2023-05-18T01:24:22;13.45;;;3.20;;
11743;SDS011;5929;51.906;7.674;2023-05-18T01:26:58;13.73;;;3.20;;
11743;SDS011;5929;51.906;7.674;2023-05-18T01:29:28;12.65;;;2.90;;
11743;SDS011;5929;51.906;7.674;2023-05-18T01:31:55;9.15;;;2.80;;
11743;SDS011;5929;51.906;7.674;2023-05-18T01:34:23;11.15;;;3.47;;
11743;SDS011;5929;51.906;7.674;2023-05-18T01:36:50;10.90;;;3.20;;
11743;SDS011;5929;51.906;7.674;2023-05-18T01:39:19;13.75;;;3.92;;
11743;SDS011;5929;51.906;7.674;2023-05-18T01:41:49;9.95;;;3.38;;
11743;SDS011;5929;51.906;7.674;2023-05-18T01:44:23;10.13;;;3.22;;
11743;SDS011;5929;51.906;7.674;2023-05-18T01:46:53;10.30;;;3.28;;
11743;SDS011;5929;51.906;7.674;2023-05-18T01:49:28;10.20;;;3.17;;
11743;SDS011;5929;51.906;7.674;2023-05-18T01:52:00;10.55;;;3.40;;
11743;SDS011;5929;51.906;7.674;2023-05-18T01:54:31;11.98;;;3.60;;
11743;SDS011;5929;51.906;7.674;2023-05-18T01:57:01;12.55;;;4.00;;
11743;SDS011;5929;51.906;7.674;2023-05-18T01:59:32;10.45;;;3.47;;
11743;SDS011;5929;51.906;7.674;2023-05-18T02:01:59;10.57;;;2.85;;
11743;SDS011;5929;51.906;7.674;2023-05-18T02:04:26;11.13;;;3.65;;
11743;SDS011;5929;51.906;7.674;2023-05-18T02:06:53;10.02;;;3.10;;
11743;SDS011;5929;51.906;7.674;2023-05-18T02:09:20;14.75;;;3.70;;
11743;SDS011;5929;51.906;7.674;2023-05-18T02:11:47;13.30;;;3.45;;
11743;SDS011;5929;51.906;7.674;2023-05-18T02:14:14;15.77;;;4.13;;
11743;SDS011;5929;51.906;7.674;2023-05-18T02:16:43;10.20;;;3.33;;
11743;SDS011;5929;51.906;7.674;2023-05-18T02:19:11;9.93;;;3.17;;
11743;SDS011;5929;51.906;7.674;2023-05-18T02:21:38;9.10;;;3.10;;
11743;SDS011;5929;51.906;7.674;2023-05-18T02:24:05;10.77;;;3.30;;
11743;SDS011;5929;51.906;7.674;2023-05-18T02:26:33;12.23;;;3.58;;
11743;SDS011;5929;51.906;7.674;2023-05-18T02:29:03;12.38;;;3.88;;
11743;SDS011;5929;51.906;7.674;2023-05-18T02:31:35;9.32;;;3.20;;
11743;SDS011;5929;51.906;7.674;2023-05-18T02:34:04;9.57;;;3.50;;
11743;SDS011;5929;51.906;7.674;2023-05-18T02:36:31;11.25;;;3.20;;
11743;SDS011;5929;51.906;7.674;2023-05-18T02:39:01;9.02;;;2.70;;
11743;SDS011;5929;51.906;7.674;2023-05-18T02:41:29;10.50;;;3.35;;
11743;SDS011;5929;51.906;7.674;2023-05-18T02:43:55;11.43;;;3.13;;
11743;SDS011;5929;51.906;7.674;2023-05-18T02:46:22;13.73;;;3.53;;
11743;SDS011;5929;51.906;7.674;2023-05-18T02:48:49;14.23;;;3.72;;
11743;SDS011;5929;51.906;7.674;2023-05-18T02:51:17;9.70;;;3.35;;
11743;SDS011;5929;51.906;7.674;2023-05-18T02:53:45;13.63;;;3.42;;
11743;SDS011;5929;51.906;7.674;2023-05-18T02:56:12;14.90;;;4.07;;
11743;SDS011;5929;51.906;7.674;2023-05-18T02:58:39;11.05;;;3.20;;
11743;SDS011;5929;51.906;7.674;2023-05-18T03:01:07;15.48;;;3.60;;
11743;SDS011;5929;51.906;7.674;2023-05-18T03:03:36;12.82;;;3.60;;
11743;SDS011;5929;51.906;7.674;2023-05-18T03:06:03;11.07;;;3.92;;
11743;SDS011;5929;51.906;7.674;2023-05-18T03:08:33;14.50;;;4.70;;
11743;SDS011;5929;51.906;7.674;2023-05-18T03:11:01;11.70;;;4.13;;
11743;SDS011;5929;51.906;7.674;2023-05-18T03:13:28;14.02;;;4.35;;
11743;SDS011;5929;51.906;7.674;2023-05-18T03:15:55;9.82;;;4.22;;
11743;SDS011;5929;51.906;7.674;2023-05-18T03:18:21;17.33;;;4.10;;
11743;SDS011;5929;51.906;7.674;2023-05-18T03:20:49;15.80;;;3.53;;
11743;SDS011;5929;51.906;7.674;2023-05-18T03:23:16;10.02;;;3.78;;
11743;SDS011;5929;51.906;7.674;2023-05-18T03:25:45;12.00;;;3.72;;
11743;SDS011;5929;51.906;7.674;2023-05-18T03:28:17;13.23;;;4.10;;
11743;SDS011;5929;51.906;7.674;2023-05-18T03:30:44;12.48;;;3.78;;
11743;SDS011;5929;51.906;7.674;2023-05-18T03:33:11;13.93;;;4.28;;
11743;SDS011;5929;51.906;7.674;2023-05-18T03:35:38;11.90;;;4.32;;
11743;SDS011;5929;51.906;7.674;2023-05-18T03:38:05;11.30;;;3.63;;
11743;SDS011;5929;51.906;7.674;2023-05-18T03:40:32;10.50;;;4.05;;
11743;SDS011;5929;51.906;7.674;2023-05-18T03:43:01;14.70;;;3.75;;
11743;SDS011;5929;51.906;7.674;2023-05-18T03:45:27;10.23;;;3.63;;
11743;SDS011;5929;51.906;7.674;2023-05-18T03:47:54;12.30;;;3.90;;
11743;SDS011;5929;51.906;7.674;2023-05-18T03:50:21;9.95;;;3.70;;
11743;SDS011;5929;51.906;7.674;2023-05-18T03:52:48;13.18;;;4.13;;
11743;SDS011;5929;51.906;7.674;2023-05-18T03:55:17;19.40;;;4.95;;
11743;SDS011;5929;51.906;7.674;2023-05-18T03:57:45;13.18;;;4.45;;
11743;SDS011;5929;51.906;7.674;2023-05-18T04:00:13;13.20;;;3.78;;
11743;SDS011;5929;51.906;7.674;2023-05-18T04:02:41;14.38;;;4.05;;
11743;SDS011;5929;51.906;7.674;2023-05-18T04:05:08;14.50;;;4.32;;
11743;SDS011;5929;51.906;7.674;2023-05-18T04:07:35;11.13;;;3.95;;
11743;SDS011;5929;51.906;7.674;2023-05-18T04:10:08;13.73;;;4.00;;
11743;SDS011;5929;51.906;7.674;2023-05-18T04:12:35;19.85;;;6.18;;
11743;SDS011;5929;51.906;7.674;2023-05-18T04:15:03;15.07;;;4.38;;
11743;SDS011;5929;51.906;7.674;2023-05-18T04:17:32;9.75;;;4.13;;
11743;SDS011;5929;51.906;7.674;2023-05-18T04:19:59;13.15;;;4.18;;
11743;SDS011;5929;51.906;7.674;2023-05-18T04:22:30;14.48;;;4.53;;
11743;SDS011;5929;51.906;7.674;2023-05-18T04:24:57;16.77;;;4.88;;
11743;SDS011;5929;51.906;7.674;2023-05-18T04:27:25;11.55;;;4.13;;
11743;SDS011;5929;51.906;7.674;2023-05-18T04:29:53;11.95;;;3.83;;
11743;SDS011;5929;51.906;7.674;2023-05-18T04:32:20;13.70;;;4.82;;
11743;SDS011;5929;51.906;7.674;2023-05-18T04:34:52;11.32;;;3.78;;
11743;SDS011;5929;51.906;7.674;2023-05-18T04:37:22;11.50;;;4.80;;
11743;SDS011;5929;51.906;7.674;2023-05-18T04:39:49;16.13;;;4.53;;
11743;SDS011;5929;51.906;7.674;2023-05-18T04:42:16;14.13;;;4.50;;
11743;SDS011;5929;51.906;7.674;2023-05-18T04:44:43;11.15;;;4.28;;
11743;SDS011;5929;51.906;7.674;2023-05-18T04:47:10;17.52;;;4.93;;
11743;SDS011;5929;51.906;7.674;2023-05-18T04:49:37;17.98;;;5.28;;
11743;SDS011;5929;51.906;7.674;2023-05-18T04:52:05;13.88;;;4.35;;
11743;SDS011;5929;51.906;7.674;2023-05-18T04:54:34;11.93;;;4.32;;
11743;SDS011;5929;51.906;7.674;2023-05-18T04:57:01;20.88;;;4.57;;
11743;SDS011;5929;51.906;7.674;2023-05-18T04:59:28;16.65;;;4.82;;
11743;SDS011;5929;51.906;7.674;2023-05-18T05:01:55;11.63;;;4.35;;
11743;SDS011;5929;51.906;7.674;2023-05-18T05:04:22;12.73;;;4.68;;
11743;SDS011;5929;51.906;7.674;2023-05-18T05:06:49;13.82;;;4.78;;
11743;SDS011;5929;51.906;7.674;2023-05-18T05:09:17;17.98;;;4.75;;
11743;SDS011;5929;51.906;7.674;2023-05-18T05:11:44;15.40;;;5.28;;
11743;SDS011;5929;51.906;7.674;2023-05-18T05:14:11;13.07;;;4.40;;
11743;SDS011;5929;51.906;7.674;2023-05-18T05:16:40;14.48;;;4.30;;
11743;SDS011;5929;51.906;7.674;2023-05-18T05:19:06;12.82;;;4.20;;
11743;SDS011;5929;51.906;7.674;2023-05-18T05:21:33;13.25;;;4.75;;
11743;SDS011;5929;51.906;7.674;2023-05-18T05:24:00;16.17;;;5.47;;
11743;SDS011;5929;51.906;7.674;2023-05-18T05:26:30;13.82;;;4.57;;
11743;SDS011;5929;51.906;7.674;2023-05-18T05:28:57;13.70;;;4.30;;
11743;SDS011;5929;51.906;7.674;2023-05-18T05:31:24;14.18;;;4.22;;
11743;SDS011;5929;51.906;7.674;2023-05-18T05:33:51;10.73;;;3.92;;
11743;SDS011;5929;51.906;7.674;2023-05-18T05:36:18;13.80;;;4.40;;
11743;SDS011;5929;51.906;7.674;2023-05-18T05:38:44;10.70;;;3.70;;
11743;SDS011;5929;51.906;7.674;2023-05-18T05:41:11;14.80;;;4.65;;
11743;SDS011;5929;51.906;7.674;2023-05-18T05:43:39;12.82;;;4.18;;
11743;SDS011;5929;51.906;7.674;2023-05-18T05:46:06;20.38;;;4.40;;
11743;SDS011;5929;51.906;7.674;2023-05-18T05:48:33;14.90;;;4.63;;
11743;SDS011;5929;51.906;7.674;2023-05-18T05:51:00;10.75;;;3.92;;
11743;SDS011;5929;51.906;7.674;2023-05-18T05:53:27;17.75;;;3.88;;
11743;SDS011;5929;51.906;7.674;2023-05-18T05:55:53;11.35;;;4.47;;
11743;SDS011;5929;51.906;7.674;2023-05-18T05:58:20;10.70;;;4.10;;
11743;SDS011;5929;51.906;7.674;2023-05-18T06:00:48;12.40;;;3.65;;
11743;SDS011;5929;51.906;7.674;2023-05-18T06:03:15;14.50;;;4.28;;
11743;SDS011;5929;51.906;7.674;2023-05-18T06:05:42;10.15;;;3.58;;
11743;SDS011;5929;51.906;7.674;2023-05-18T06:08:09;8.25;;;3.10;;
11743;SDS011;5929;51.906;7.674;2023-05-18T06:10:36;12.90;;;3.63;;
11743;SDS011;5929;51.906;7.674;2023-05-18T06:13:05;11.32;;;3.50;;
11743;SDS011;5929;51.906;7.674;2023-05-18T06:15:32;11.60;;;4.00;;
11743;SDS011;5929;51.906;7.674;2023-05-18T06:18:00;9.75;;;3.65;;
11743;SDS011;5929;51.906;7.674;2023-05-18T06:20:29;10.23;;;3.20;;
11743;SDS011;5929;51.906;7.674;2023-05-18T06:22:56;13.43;;;3.72;;
11743;SDS011;5929;51.906;7.674;2023-05-18T06:25:23;17.17;;;4.00;;
11743;SDS011;5929;51.906;7.674;2023-05-18T06:27:49;10.07;;;2.95;;
11743;SDS011;5929;51.906;7.674;2023-05-18T06:30:16;11.40;;;3.33;;
11743;SDS011;5929;51.906;7.674;2023-05-18T06:32:43;10.15;;;3.15;;
11743;SDS011;5929;51.906;7.674;2023-05-18T06:35:11;10.10;;;3.53;;
11743;SDS011;5929;51.906;7.674;2023-05-18T06:37:38;11.95;;;3.20;;
11743;SDS011;5929;51.906;7.674;2023-05-18T06:40:07;11.57;;;2.95;;
11743;SDS011;5929;51.906;7.674;2023-05-18T06:42:35;14.60;;;3.45;;
11743;SDS011;5929;51.906;7.674;2023-05-18T06:45:02;14.95;;;3.55;;
11743;SDS011;5929;51.906;7.674;2023-05-18T06:47:30;9.02;;;2.92;;
11743;SDS011;5929;51.906;7.674;2023-05-18T06:49:57;11.95;;;3.17;;
11743;SDS011;5929;51.906;7.674;2023-05-18T06:52:27;16.60;;;3.50;;
11743;SDS011;5929;51.906;7.674;2023-05-18T06:54:55;10.52;;;2.80;;
11743;SDS011;5929;51.906;7.674;2023-05-18T06:57:22;12.82;;;3.53;;
11743;SDS011;5929;51.906;7.674;2023-05-18T06:59:48;15.93;;;3.67;;
11743;SDS011;5929;51.906;7.674;2023-05-18T07:02:17;11.52;;;3.40;;
11743;SDS011;5929;51.906;7.674;2023-05-18T07:04:45;8.32;;;3.00;;
11743;SDS011;5929;51.906;7.674;2023-05-18T07:07:13;13.93;;;3.40;;
11743;SDS011;5929;51.906;7.674;2023-05-18T07:09:42;12.55;;;3.15;;
11743;SDS011;5929;51.906;7.674;2023-05-18T07:12:09;14.70;;;3.10;;
11743;SDS011;5929;51.906;7.674;2023-05-18T07:14:36;13.02;;;3.92;;
11743;SDS011;5929;51.906;7.674;2023-05-18T07:17:03;11.77;;;3.47;;
11743;SDS011;5929;51.906;7.674;2023-05-18T07:19:31;11.05;;;3.83;;
11743;SDS011;5929;51.906;7.674;2023-05-18T07:21:59;13.27;;;3.47;;
11743;SDS011;5929;51.906;7.674;2023-05-18T07:24:25;12.25;;;3.50;;
11743;SDS011;5929;51.906;7.674;2023-05-18T07:26:54;13.80;;;2.95;;
11743;SDS011;5929;51.906;7.674;2023-05-18T07:29:21;9.93;;;2.92;;
11743;SDS011;5929;51.906;7.674;2023-05-18T07:31:47;12.07;;;2.92;;
11743;SDS011;5929;51.906;7.674;2023-05-18T07:34:15;12.75;;;2.95;;
11743;SDS011;5929;51.906;7.674;2023-05-18T07:36:42;15.52;;;2.83;;
11743;SDS011;5929;51.906;7.674;2023-05-18T07:39:09;10.30;;;3.00;;
11743;SDS011;5929;51.906;7.674;2023-05-18T07:41:44;12.65;;;2.83;;
11743;SDS011;5929;51.906;7.674;2023-05-18T07:44:13;8.55;;;2.65;;
11743;SDS011;5929;51.906;7.674;2023-05-18T07:46:40;14.18;;;3.55;;
11743;SDS011;5929;51.906;7.674;2023-05-18T07:49:08;12.25;;;3.03;;
11743;SDS011;5929;51.906;7.674;2023-05-18T07:51:34;14.13;;;2.92;;
11743;SDS011;5929;51.906;7.674;2023-05-18T07:54:01;10.45;;;3.05;;
11743;SDS011;5929;51.906;7.674;2023-05-18T07:56:29;8.45;;;2.63;;
11743;SDS011;5929;51.906;7.674;2023-05-18T07:58:56;16.48;;;3.70;;
11743;SDS011;5929;51.906;7.674;2023-05-18T08:01:24;14.43;;;3.05;;
11743;SDS011;5929;51.906;7.674;2023-05-18T08:03:54;11.20;;;2.78;;
11743;SDS011;5929;51.906;7.674;2023-05-18T08:06:21;11.65;;;3.22;;
11743;SDS011;5929;51.906;7.674;2023-05-18T08:08:49;11.90;;;2.97;;
11743;SDS011;5929;51.906;7.674;2023-05-18T08:11:16;10.68;;;2.92;;
11743;SDS011;5929;51.906;7.674;2023-05-18T08:13:43;9.55;;;2.53;;
11743;SDS011;5929;51.906;7.674;2023-05-18T08:16:10;14.13;;;2.75;;
11743;SDS011;5929;51.906;7.674;2023-05-18T08:18:39;12.13;;;3.05;;
11743;SDS011;5929;51.906;7.674;2023-05-18T08:21:06;11.57;;;2.88;;
11743;SDS011;5929;51.906;7.674;2023-05-18T08:23:33;9.38;;;2.15;;
11743;SDS011;5929;51.906;7.674;2023-05-18T08:26:01;9.93;;;2.33;;
11743;SDS011;5929;51.906;7.674;2023-05-18T08:28:28;12.13;;;2.72;;
11743;SDS011;5929;51.906;7.674;2023-05-18T08:30:55;16.55;;;3.20;;
11743;SDS011;5929;51.906;7.674;2023-05-18T08:33:22;9.82;;;2.95;;
11743;SDS011;5929;51.906;7.674;2023-05-18T08:35:51;10.55;;;3.30;;
11743;SDS011;5929;51.906;7.674;2023-05-18T08:38:18;9.27;;;2.50;;
11743;SDS011;5929;51.906;7.674;2023-05-18T08:40:46;14.75;;;3.25;;
11743;SDS011;5929;51.906;7.674;2023-05-18T08:43:19;13.93;;;3.25;;
11743;SDS011;5929;51.906;7.674;2023-05-18T08:45:47;10.95;;;2.95;;
11743;SDS011;5929;51.906;7.674;2023-05-18T08:48:17;12.27;;;2.67;;
11743;SDS011;5929;51.906;7.674;2023-05-18T08:50:47;12.75;;;2.90;;
11743;SDS011;5929;51.906;7.674;2023-05-18T08:53:19;12.68;;;2.80;;
11743;SDS011;5929;51.906;7.674;2023-05-18T08:55:50;9.57;;;2.92;;
11743;SDS011;5929;51.906;7.674;2023-05-18T08:58:22;17.77;;;3.40;;
11743;SDS011;5929;51.906;7.674;2023-05-18T09:00:59;11.52;;;2.70;;
11743;SDS011;5929;51.906;7.674;2023-05-18T09:03:27;9.85;;;2.50;;
11743;SDS011;5929;51.906;7.674;2023-05-18T09:05:55;12.25;;;2.50;;
11743;SDS011;5929;51.906;7.674;2023-05-18T09:08:25;10.85;;;2.55;;
11743;SDS011;5929;51.906;7.674;2023-05-18T09:10:53;15.45;;;2.70;;
11743;SDS011;5929;51.906;7.674;2023-05-18T09:13:22;11.98;;;2.92;;
11743;SDS011;5929;51.906;7.674;2023-05-18T09:15:51;15.13;;;2.95;;
11743;SDS011;5929;51.906;7.674;2023-05-18T09:18:18;11.60;;;3.30;;
11743;SDS011;5929;51.906;7.674;2023-05-18T09:20:44;12.40;;;3.30;;
11743;SDS011;5929;51.906;7.674;2023-05-18T09:23:13;12.15;;;2.60;;
11743;SDS011;5929;51.906;7.674;2023-05-18T09:25:43;11.45;;;2.78;;
11743;SDS011;5929;51.906;7.674;2023-05-18T09:28:11;10.95;;;2.63;;
11743;SDS011;5929;51.906;7.674;2023-05-18T09:30:39;12.93;;;2.92;;
11743;SDS011;5929;51.906;7.674;2023-05-18T09:33:14;6.40;;;2.70;;
11743;SDS011;5929;51.906;7.674;2023-05-18T09:35:43;13.82;;;3.63;;
11743;SDS011;5929;51.906;7.674;2023-05-18T09:38:11;11.35;;;2.95;;
11743;SDS011;5929;51.906;7.674;2023-05-18T09:40:44;9.23;;;3.10;;
11743;SDS011;5929;51.906;7.674;2023-05-18T09:43:11;11.25;;;2.60;;
11743;SDS011;5929;51.906;7.674;2023-05-18T09:45:40;14.60;;;3.90;;
11743;SDS011;5929;51.906;7.674;2023-05-18T09:48:08;12.77;;;3.10;;
11743;SDS011;5929;51.906;7.674;2023-05-18T09:50:36;12.23;;;3.38;;
11743;SDS011;5929;51.906;7.674;2023-05-18T09:53:05;10.70;;;3.05;;
11743;SDS011;5929;51.906;7.674;2023-05-18T09:55:35;18.48;;;2.97;;
11743;SDS011;5929;51.906;7.674;2023-05-18T09:58:06;9.00;;;3.30;;
11743;SDS011;5929;51.906;7.674;2023-05-18T10:00:36;8.68;;;3.03;;
11743;SDS011;5929;51.906;7.674;2023-05-18T10:03:11;12.18;;;3.08;;
11743;SDS011;5929;51.906;7.674;2023-05-18T10:05:42;9.88;;;3.00;;
11743;SDS011;5929;51.906;7.674;2023-05-18T10:08:11;10.73;;;3.08;;
11743;SDS011;5929;51.906;7.674;2023-05-18T10:10:38;13.20;;;2.97;;
11743;SDS011;5929;51.906;7.674;2023-05-18T10:13:08;8.25;;;2.58;;
11743;SDS011;5929;51.906;7.674;2023-05-18T10:15:44;10.57;;;2.40;;
11743;SDS011;5929;51.906;7.674;2023-05-18T10:18:12;11.80;;;2.97;;
11743;SDS011;5929;51.906;7.674;2023-05-18T10:20:43;11.82;;;2.92;;
11743;SDS011;5929;51.906;7.674;2023-05-18T10:23:15;8.98;;;2.80;;
11743;SDS011;5929;51.906;7.674;2023-05-18T10:25:44;11.35;;;3.20;;
11743;SDS011;5929;51.906;7.674;2023-05-18T10:28:15;14.15;;;3.03;;
11743;SDS011;5929;51.906;7.674;2023-05-18T10:30:48;9.27;;;2.70;;
11743;SDS011;5929;51.906;7.674;2023-05-18T10:33:17;8.85;;;2.90;;
11743;SDS011;5929;51.906;7.674;2023-05-18T10:35:44;12.10;;;3.00;;
11743;SDS011;5929;51.906;7.674;2023-05-18T10:38:14;13.35;;;2.60;;
11743;SDS011;5929;51.906;7.674;2023-05-18T10:40:47;8.48;;;2.50;;
11743;SDS011;5929;51.906;7.674;2023-05-18T10:43:21;11.68;;;3.08;;
11743;SDS011;5929;51.906;7.674;2023-05-18T10:45:51;8.85;;;2.90;;
11743;SDS011;5929;51.906;7.674;2023-05-18T10:48:19;7.03;;;2.40;;
11743;SDS011;5929;51.906;7.674;2023-05-18T10:50:47;11.43;;;3.17;;
11743;SDS011;5929;51.906;7.674;2023-05-18T10:53:15;11.70;;;2.63;;
11743;SDS011;5929;51.906;7.674;2023-05-18T10:55:43;10.88;;;2.80;;
11743;SDS011;5929;51.906;7.674;2023-05-18T10:58:11;12.98;;;3.45;;
11743;SDS011;5929;51.906;7.674;2023-05-18T11:00:43;10.35;;;3.10;;
11743;SDS011;5929;51.906;7.674;2023-05-18T11:03:13;11.43;;;2.85;;
11743;SDS011;5929;51.906;7.674;2023-05-18T11:05:42;13.85;;;3.35;;
11743;SDS011;5929;51.906;7.674;2023-05-18T11:08:13;6.35;;;2.40;;
11743;SDS011;5929;51.906;7.674;2023-05-18T11:10:58;8.55;;;2.92;;
11743;SDS011;5929;51.906;7.674;2023-05-18T11:13:27;10.10;;;2.58;;
11743;SDS011;5929;51.906;7.674;2023-05-18T11:16:06;11.65;;;3.38;;
11743;SDS011;5929;51.906;7.674;2023-05-18T11:18:40;11.88;;;2.65;;
11743;SDS011;5929;51.906;7.674;2023-05-18T11:21:28;8.02;;;2.55;;
11743;SDS011;5929;51.906;7.674;2023-05-18T11:24:21;10.80;;;2.40;;
11743;SDS011;5929;51.906;7.674;2023-05-18T11:26:50;11.48;;;2.63;;
11743;SDS011;5929;51.906;7.674;2023-05-18T11:29:18;9.52;;;2.35;;
11743;SDS011;5929;51.906;7.674;2023-05-18T11:31:48;10.80;;;3.03;;
11743;SDS011;5929;51.906;7.674;2023-05-18T11:34:39;9.32;;;3.00;;
11743;SDS011;5929;51.906;7.674;2023-05-18T11:37:09;9.85;;;3.17;;
11743;SDS011;5929;51.906;7.674;2023-05-18T11:39:36;10.43;;;3.08;;
11743;SDS011;5929;51.906;7.674;2023-05-18T11:42:07;10.75;;;3.35;;
11743;SDS011;5929;51.906;7.674;2023-05-18T11:44:34;7.65;;;2.40;;
11743;SDS011;5929;51.906;7.674;2023-05-18T11:47:06;8.55;;;2.70;;
11743;SDS011;5929;51.906;7.674;2023-05-18T11:49:41;8.43;;;2.55;;
11743;SDS011;5929;51.906;7.674;2023-05-18T11:52:13;13.07;;;2.75;;
11743;SDS011;5929;51.906;7.674;2023-05-18T11:54:43;8.85;;;2.88;;
11743;SDS011;5929;51.906;7.674;2023-05-18T11:57:12;7.00;;;2.40;;
11743;SDS011;5929;51.906;7.674;2023-05-18T11:59:40;9.18;;;2.60;;
11743;SDS011;5929;51.906;7.674;2023-05-18T12:02:09;10.32;;;2.80;;
11743;SDS011;5929;51.906;7.674;2023-05-18T12:04:41;11.75;;;2.80;;
11743;SDS011;5929;51.906;7.674;2023-05-18T12:07:10;7.93;;;2.60;;
11743;SDS011;5929;51.906;7.674;2023-05-18T12:09:41;7.28;;;2.47;;
11743;SDS011;5929;51.906;7.674;2023-05-18T12:12:09;8.45;;;2.65;;
11743;SDS011;5929;51.906;7.674;2023-05-18T12:14:37;14.10;;;2.75;;
11743;SDS011;5929;51.906;7.674;2023-05-18T12:17:06;8.77;;;2.72;;
11743;SDS011;5929;51.906;7.674;2023-05-18T12:19:40;8.75;;;2.80;;
11743;SDS011;5929;51.906;7.674;2023-05-18T12:22:08;8.15;;;2.80;;
11743;SDS011;5929;51.906;7.674;2023-05-18T12:24:35;8.75;;;2.50;;
11743;SDS011;5929;51.906;7.674;2023-05-18T12:27:04;10.63;;;3.00;;
11743;SDS011;5929;51.906;7.674;2023-05-18T12:29:32;8.63;;;2.90;;
11743;SDS011;5929;51.906;7.674;2023-05-18T12:32:03;10.43;;;2.58;;
11743;SDS011;5929;51.906;7.674;2023-05-18T12:34:34;11.32;;;2.80;;
11743;SDS011;5929;51.906;7.674;2023-05-18T12:37:03;7.30;;;2.67;;
11743;SDS011;5929;51.906;7.674;2023-05-18T12:39:30;8.45;;;2.67;;
11743;SDS011;5929;51.906;7.674;2023-05-18T12:42:07;8.82;;;2.83;;
11743;SDS011;5929;51.906;7.674;2023-05-18T12:44:35;9.63;;;2.63;;
11743;SDS011;5929;51.906;7.674;2023-05-18T12:47:05;9.93;;;2.60;;
11743;SDS011;5929;51.906;7.674;2023-05-18T12:49:35;11.02;;;2.50;;
11743;SDS011;5929;51.906;7.674;2023-05-18T12:52:11;13.70;;;2.60;;
11743;SDS011;5929;51.906;7.674;2023-05-18T12:54:46;10.27;;;2.72;;
11743;SDS011;5929;51.906;7.674;2023-05-18T12:57:19;12.45;;;3.10;;
11743;SDS011;5929;51.906;7.674;2023-05-18T12:59:49;9.45;;;2.45;;
11743;SDS011;5929;51.906;7.674;2023-05-18T13:02:26;6.93;;;2.38;;
11743;SDS011;5929;51.906;7.674;2023-05-18T13:05:05;8.05;;;2.85;;
11743;SDS011;5929;51.906;7.674;2023-05-18T13:07:38;11.82;;;2.78;;
11743;SDS011;5929;51.906;7.674;2023-05-18T13:10:07;9.60;;;2.83;;
11743;SDS011;5929;51.906;7.674;2023-05-18T13:12:41;10.13;;;2.53;;
11743;SDS011;5929;51.906;7.674;2023-05-18T13:15:10;9.55;;;2.67;;
11743;SDS011;5929;51.906;7.674;2023-05-18T13:17:38;8.05;;;2.47;;
11743;SDS011;5929;51.906;7.674;2023-05-18T13:20:15;11.75;;;2.97;;
11743;SDS011;5929;51.906;7.674;2023-05-18T13:22:43;7.10;;;2.67;;
11743;SDS011;5929;51.906;7.674;2023-05-18T13:25:10;10.50;;;3.00;;
11743;SDS011;5929;51.906;7.674;2023-05-18T13:27:37;8.95;;;2.92;;
11743;SDS011;5929;51.906;7.674;2023-05-18T13:30:05;8.65;;;2.75;;
11743;SDS011;5929;51.906;7.674;2023-05-18T13:32:33;8.27;;;2.55;;
11743;SDS011;5929;51.906;7.674;2023-05-18T13:34:59;9.00;;;2.90;;
11743;SDS011;5929;51.906;7.674;2023-05-18T13:37:26;10.90;;;3.28;;
11743;SDS011;5929;51.906;7.674;2023-05-18T13:39:54;9.77;;;2.90;;
11743;SDS011;5929;51.906;7.674;2023-05-18T13:42:21;11.25;;;3.00;;
11743;SDS011;5929;51.906;7.674;2023-05-18T13:44:48;11.50;;;2.80;;
11743;SDS011;5929;51.906;7.674;2023-05-18T13:47:15;10.27;;;2.75;;
11743;SDS011;5929;51.906;7.674;2023-05-18T13:49:42;10.90;;;3.03;;
11743;SDS011;5929;51.906;7.674;2023-05-18T13:52:08;7.65;;;2.58;;
11743;SDS011;5929;51.906;7.674;2023-05-18T13:54:35;6.45;;;2.03;;
11743;SDS011;5929;51.906;7.674;2023-05-18T13:57:04;10.00;;;3.00;;
11743;SDS011;5929;51.906;7.674;2023-05-18T13:59:34;8.90;;;2.20;;
11743;SDS011;5929;51.906;7.674;2023-05-18T14:02:01;10.20;;;2.58;;
11743;SDS011;5929;51.906;7.674;2023-05-18T14:04:27;9.45;;;2.50;;
11743;SDS011;5929;51.906;7.674;2023-05-18T14:06:54;8.75;;;2.85;;
11743;SDS011;5929;51.906;7.674;2023-05-18T14:09:22;11.02;;;2.85;;
11743;SDS011;5929;51.906;7.674;2023-05-18T14:11:50;7.40;;;2.30;;
11743;SDS011;5929;51.906;7.674;2023-05-18T14:14:18;7.50;;;2.28;;
11743;SDS011;5929;51.906;7.674;2023-05-18T14:16:45;8.27;;;2.35;;
11743;SDS011;5929;51.906;7.674;2023-05-18T14:19:12;7.90;;;2.33;;
11743;SDS011;5929;51.906;7.674;2023-05-18T14:21:39;7.97;;;2.08;;
11743;SDS011;5929;51.906;7.674;2023-05-18T14:24:06;11.68;;;2.53;;
11743;SDS011;5929;51.906;7.674;2023-05-18T14:26:33;8.30;;;2.47;;
11743;SDS011;5929;51.906;7.674;2023-05-18T14:29:01;9.18;;;2.88;;
11743;SDS011;5929;51.906;7.674;2023-05-18T14:31:29;12.70;;;2.85;;
11743;SDS011;5929;51.906;7.674;2023-05-18T14:33:56;7.72;;;2.20;;
11743;SDS011;5929;51.906;7.674;2023-05-18T14:36:23;8.18;;;2.42;;
11743;SDS011;5929;51.906;7.674;2023-05-18T14:38:50;9.85;;;2.70;;
11743;SDS011;5929;51.906;7.674;2023-05-18T14:41:16;10.02;;;2.55;;
11743;SDS011;5929;51.906;7.674;2023-05-18T14:43:45;9.70;;;2.35;;
11743;SDS011;5929;51.906;7.674;2023-05-18T14:46:12;9.20;;;2.50;;
11743;SDS011;5929;51.906;7.674;2023-05-18T14:48:40;9.55;;;2.88;;
11743;SDS011;5929;51.906;7.674;2023-05-18T14:51:09;6.75;;;2.53;;
11743;SDS011;5929;51.906;7.674;2023-05-18T14:53:35;8.85;;;2.63;;
11743;SDS011;5929;51.906;7.674;2023-05-18T14:56:02;8.02;;;2.72;;
11743;SDS011;5929;51.906;7.674;2023-05-18T14:58:34;8.63;;;2.88;;
11743;SDS011;5929;51.906;7.674;2023-05-18T15:01:01;8.30;;;2.55;;
11743;SDS011;5929;51.906;7.674;2023-05-18T15:03:28;6.90;;;2.20;;